Time;durP1;ratioP1;P1;durP2;ratioP2;P2;SDS_P1;SDS_P2;PMS_P1;PMS_P2;Temp;Humidity;BMP_temperature;BMP_pressure;BME280_temperature;BME280_humidity;BME280_pressure;Samples;Min_cycle;Max_cycle;Signal;HPM_P1;HPM_P2
2022/05/19 00:01:27;;;;;;;;;;;;;;;17.08;65.43;101379.97;5089575;28;20020;-74
2022/05/19 00:03:52;;;;;;;;;;;;;;;17.08;66.29;101387.84;5089471;28;19932;-74
2022/05/19 00:06:19;;;;;;;;;;;;;;;17.05;66.53;101389.75;5089627;28;20558;-74
2022/05/19 00:08:44;;;;;;;;;;;;;;;16.98;67.74;101383.88;5089154;28;19951;-74
2022/05/19 00:11:12;;;;;;;;;;;;;;;17.02;66.31;101385.47;5094746;28;21526;-74
2022/05/19 00:13:37;;;;;;;;;;;;;;;17.03;66.08;101391.56;5067482;28;20432;-74
2022/05/19 00:16:05;;;;;;;;;;;;;;;17.02;66.84;101385.47;5085995;28;20018;-74
2022/05/19 00:18:31;;;;;;;;;;;;;;;16.99;66.20;101390.00;5090895;28;19924;-74
2022/05/19 00:20:56;;;;;;;;;;;;;;;16.97;67.39;101387.41;5087096;28;19931;-74
2022/05/19 00:23:22;;;;;;;;;;;;;;;16.95;67.42;101385.75;5088680;28;19995;-74
2022/05/19 00:25:47;;;;;;;;;;;;;;;16.90;68.06;101378.06;5089903;28;19921;-74
2022/05/19 00:28:13;;;;;;;;;;;;;;;16.90;68.36;101385.94;5083627;28;20046;-76
2022/05/19 00:30:38;;;;;;;;;;;;;;;16.86;68.69;101386.94;5089010;28;20285;-76
2022/05/19 00:33:03;;;;;;;;;;;;;;;16.85;68.20;101387.84;5088830;28;20320;-76
2022/05/19 00:35:29;;;;;;;;;;;;;;;16.82;68.23;101393.22;5087719;28;19915;-76
2022/05/19 00:37:54;;;;;;;;;;;;;;;16.81;68.44;101394.16;5067913;28;19924;-76
2022/05/19 00:40:21;;;;;;;;;;;;;;;16.82;67.37;101387.09;5085256;28;19941;-76
2022/05/19 00:42:47;;;;;;;;;;;;;;;16.82;67.63;101376.63;5088371;28;19990;-74
2022/05/19 00:45:12;;;;;;;;;;;;;;;16.79;68.27;101376.75;5085362;28;20038;-75
2022/05/19 00:47:46;;;;;;;;;;;;;;;16.77;67.74;101374.19;5091612;28;20355;-75
2022/05/19 00:50:26;;;;;;;;;;;;;;;16.73;68.19;101367.31;5067538;28;19924;-74
2022/05/19 00:52:53;;;;;;;;;;;;;;;16.73;68.24;101366.50;5092741;28;19923;-74
2022/05/19 00:55:28;;;;;;;;;;;;;;;16.74;68.31;101360.31;5077057;28;19932;-74
2022/05/19 00:57:57;;;;;;;;;;;;;;;16.72;67.98;101370.00;5067878;28;20297;-76
2022/05/19 01:00:23;;;;;;;;;;;;;;;16.66;68.56;101360.56;5089436;28;20019;-76
2022/05/19 01:02:56;;;;;;;;;;;;;;;16.67;68.51;101364.88;5083682;28;20345;-76
2022/05/19 01:05:28;;;;;;;;;;;;;;;16.66;67.70;101362.34;5090705;28;19920;-76
2022/05/19 01:08:00;;;;;;;;;;;;;;;16.64;68.60;101370.25;5087518;28;19924;-76
2022/05/19 01:10:25;;;;;;;;;;;;;;;16.64;68.35;101372.88;5085733;28;20544;-76
2022/05/19 01:12:51;;;;;;;;;;;;;;;16.62;69.15;101374.69;5087079;28;20007;-76
2022/05/19 01:15:17;;;;;;;;;;;;;;;16.63;68.86;101370.31;5084781;28;19923;-76
2022/05/19 01:17:42;;;;;;;;;;;;;;;16.59;69.29;101368.69;5086144;28;19963;-76
2022/05/19 01:20:12;;;;;;;;;;;;;;;16.59;68.93;101360.84;5084531;28;19971;-76
2022/05/19 01:22:37;;;;;;;;;;;;;;;16.59;68.82;101368.69;5088203;28;19994;-76
2022/05/19 01:25:21;;;;;;;;;;;;;;;16.57;68.83;101371.41;5084660;28;20961;-76
2022/05/19 01:27:47;;;;;;;;;;;;;;;16.55;68.56;101375.81;5087165;28;19924;-76
2022/05/19 01:30:12;;;;;;;;;;;;;;;16.52;68.63;101375.97;5086373;28;19922;-76
2022/05/19 01:32:38;;;;;;;;;;;;;;;16.53;69.03;101375.03;5086698;28;19916;-76
2022/05/19 01:35:04;;;;;;;;;;;;;;;16.50;68.63;101364.66;5086914;28;19968;-76
2022/05/19 01:37:29;;;;;;;;;;;;;;;16.58;67.83;101352.09;5088029;28;20388;-76
2022/05/19 01:40:03;;;;;;;;;;;;;;;16.58;67.44;101339.00;5089015;28;19920;-76
2022/05/19 01:42:44;;;;;;;;;;;;;;;16.61;67.29;101336.25;5084127;28;19938;-76
2022/05/19 01:45:15;;;;;;;;;;;;;;;16.59;66.87;101329.34;5087373;28;19916;-76
2022/05/19 01:47:44;;;;;;;;;;;;;;;16.61;67.19;101344.13;5094742;28;19916;-76
2022/05/19 01:50:21;;;;;;;;;;;;;;;16.61;66.99;101340.66;5069288;28;19924;-76
2022/05/19 01:52:51;;;;;;;;;;;;;;;16.55;68.04;101340.91;5084302;28;20005;-76
2022/05/19 01:55:27;;;;;;;;;;;;;;;16.53;67.84;101338.31;5084694;28;19939;-76
2022/05/19 01:58:01;;;;;;;;;;;;;;;16.53;67.86;101340.94;5086334;28;19926;-76
2022/05/19 02:00:28;;;;;;;;;;;;;;;16.50;68.08;101341.03;5087532;28;19963;-74
2022/05/19 02:03:09;;;;;;;;;;;;;;;16.47;68.40;101344.63;5088803;28;20021;-74
2022/05/19 02:05:40;;;;;;;;;;;;;;;16.46;68.00;101344.72;5088498;28;19950;-74
2022/05/19 02:08:08;;;;;;;;;;;;;;;16.44;68.56;101341.25;5087608;28;20296;-76
2022/05/19 02:10:36;;;;;;;;;;;;;;;16.48;68.06;101338.50;5069546;28;20281;-76
2022/05/19 02:13:03;;;;;;;;;;;;;;;16.42;68.28;101337.84;5089169;28;19972;-75
2022/05/19 02:15:31;;;;;;;;;;;;;;;16.40;68.63;101343.13;5092334;28;19923;-75
2022/05/19 02:17:57;;;;;;;;;;;;;;;16.37;68.13;101332.75;5086582;28;20007;-73
2022/05/19 02:20:24;;;;;;;;;;;;;;;16.36;69.29;101335.44;5086345;28;20015;-74
2022/05/19 02:22:50;;;;;;;;;;;;;;;16.35;69.08;101333.72;5082872;28;20337;-73
2022/05/19 02:25:23;;;;;;;;;;;;;;;16.33;69.15;101338.19;5085829;28;19924;-73
2022/05/19 02:27:51;;;;;;;;;;;;;;;16.33;69.12;101343.44;5089326;28;19995;-73
2022/05/19 02:30:20;;;;;;;;;;;;;;;16.32;68.70;101336.47;5084308;28;19924;-74
2022/05/19 02:32:45;;;;;;;;;;;;;;;16.28;69.44;101345.38;5084274;28;19916;-74
2022/05/19 02:35:11;;;;;;;;;;;;;;;16.28;69.28;101346.22;5083660;28;19924;-74
2022/05/19 02:37:37;;;;;;;;;;;;;;;16.30;69.33;101346.16;5083376;28;19928;-74
2022/05/19 02:40:03;;;;;;;;;;;;;;;16.30;69.31;101346.16;5081383;28;19924;-74
2022/05/19 02:42:29;;;;;;;;;;;;;;;16.31;68.73;101338.22;5088947;28;19973;-74
2022/05/19 02:44:54;;;;;;;;;;;;;;;16.29;69.18;101340.03;5083230;28;20019;-74
2022/05/19 02:47:19;;;;;;;;;;;;;;;16.26;68.72;101334.06;5089084;28;20368;-74
2022/05/19 02:49:44;;;;;;;;;;;;;;;16.26;68.95;101329.66;5086026;28;19931;-76
2022/05/19 02:52:10;;;;;;;;;;;;;;;16.26;68.75;101334.91;5088880;28;19923;-76
2022/05/19 02:54:35;;;;;;;;;;;;;;;16.19;69.30;101338.69;5085143;28;19924;-76
2022/05/19 02:57:00;;;;;;;;;;;;;;;16.19;68.92;101335.19;5084796;28;20439;-76
2022/05/19 02:59:26;;;;;;;;;;;;;;;16.19;69.20;101335.19;5085992;28;19919;-76
2022/05/19 03:01:51;;;;;;;;;;;;;;;16.22;69.20;101328.09;5084073;28;19973;-76
2022/05/19 03:04:17;;;;;;;;;;;;;;;16.27;68.12;101338.41;5082235;28;20052;-76
2022/05/19 03:06:42;;;;;;;;;;;;;;;16.27;67.90;101343.63;5085878;28;19934;-76
2022/05/19 03:09:09;;;;;;;;;;;;;;;16.29;67.55;101339.19;5083238;28;19920;-74
2022/05/19 03:11:34;;;;;;;;;;;;;;;16.28;67.89;101340.13;5085888;28;19920;-74
2022/05/19 03:14:00;;;;;;;;;;;;;;;16.31;68.60;101345.25;5084404;28;20402;-74
2022/05/19 03:16:25;;;;;;;;;;;;;;;16.28;67.94;101332.25;5083163;28;19924;-74
2022/05/19 03:18:50;;;;;;;;;;;;;;;16.28;68.13;101337.50;5084850;28;19923;-74
2022/05/19 03:21:15;;;;;;;;;;;;;;;16.35;67.53;101339.84;5065261;28;19920;-75
2022/05/19 03:23:41;;;;;;;;;;;;;;;16.34;67.40;101335.50;5082705;28;19924;-74
2022/05/19 03:26:06;;;;;;;;;;;;;;;16.32;67.24;101329.44;5083612;28;20416;-74
2022/05/19 03:28:32;;;;;;;;;;;;;;;16.35;67.01;101331.97;5082617;28;19954;-74
2022/05/19 03:30:57;;;;;;;;;;;;;;;16.37;66.87;101335.38;5082846;28;19928;-74
2022/05/19 03:33:22;;;;;;;;;;;;;;;16.35;66.49;101328.47;5080779;28;20769;-76
2022/05/19 03:35:57;;;;;;;;;;;;;;;16.35;66.19;101331.09;5086944;28;19959;-76
2022/05/19 03:38:23;;;;;;;;;;;;;;;16.28;66.83;101329.63;5087921;28;19924;-76
2022/05/19 03:40:48;;;;;;;;;;;;;;;16.28;67.23;101332.25;5088853;28;19927;-76
2022/05/19 03:43:13;;;;;;;;;;;;;;;16.28;66.74;101330.50;5087855;28;20488;-76
2022/05/19 03:45:39;;;;;;;;;;;;;;;16.23;67.91;101332.41;5084098;28;19985;-76
2022/05/19 03:48:05;;;;;;;;;;;;;;;16.26;68.20;101345.41;5090406;28;19973;-76
2022/05/19 03:50:30;;;;;;;;;;;;;;;16.24;67.99;101335.88;5090970;28;19927;-76
2022/05/19 03:52:55;;;;;;;;;;;;;;;16.25;67.55;101327.13;5087758;28;19970;-76
2022/05/19 03:55:20;;;;;;;;;;;;;;;16.20;67.86;101326.41;5084421;28;20022;-76
2022/05/19 03:57:46;;;;;;;;;;;;;;;16.21;67.67;101329.00;5084388;28;19934;-76
2022/05/19 04:00:12;;;;;;;;;;;;;;;16.19;68.38;101337.81;5089736;28;19943;-76
2022/05/19 04:02:37;;;;;;;;;;;;;;;16.16;68.06;101337.94;5066880;28;19928;-76
2022/05/19 04:05:03;;;;;;;;;;;;;;;16.18;68.59;101339.59;5089482;28;20442;-76
2022/05/19 04:07:28;;;;;;;;;;;;;;;16.19;68.54;101346.53;5092206;28;20519;-76
2022/05/19 04:09:54;;;;;;;;;;;;;;;16.18;68.78;101346.59;5092910;28;19931;-76
2022/05/19 04:12:20;;;;;;;;;;;;;;;16.16;69.10;101348.41;5085335;28;19927;-76
2022/05/19 04:14:45;;;;;;;;;;;;;;;16.15;69.61;101354.56;5072547;28;20006;-76
2022/05/19 04:17:10;;;;;;;;;;;;;;;16.19;68.72;101354.41;5086533;28;20613;-75
2022/05/19 04:19:36;;;;;;;;;;;;;;;16.21;68.78;101355.19;5085734;28;20442;-74
2022/05/19 04:22:01;;;;;;;;;;;;;;;16.20;68.46;101353.47;5072128;28;19924;-74
2022/05/19 04:24:27;;;;;;;;;;;;;;;16.22;68.18;101348.19;5066507;28;20007;-75
2022/05/19 04:26:52;;;;;;;;;;;;;;;16.24;67.84;101347.22;5092447;28;19924;-74
2022/05/19 04:29:18;;;;;;;;;;;;;;;16.23;68.21;101350.75;5086744;28;19924;-75
2022/05/19 04:31:43;;;;;;;;;;;;;;;16.25;68.71;101353.34;5085737;28;19924;-76
2022/05/19 04:34:08;;;;;;;;;;;;;;;16.23;68.34;101355.13;5084600;28;20083;-76
2022/05/19 04:36:33;;;;;;;;;;;;;;;16.26;68.31;101352.41;5085856;28;19920;-76
2022/05/19 04:38:59;;;;;;;;;;;;;;;16.30;68.39;101356.63;5088589;28;20003;-76
2022/05/19 04:41:24;;;;;;;;;;;;;;;16.24;68.65;101351.59;5086018;28;20365;-76
2022/05/19 04:43:51;;;;;;;;;;;;;;;16.27;68.57;101351.50;5084312;28;19928;-76
2022/05/19 04:46:16;;;;;;;;;;;;;;;16.30;68.54;101356.63;5087967;28;19926;-76
2022/05/19 04:48:42;;;;;;;;;;;;;;;16.27;67.56;101359.38;5094680;28;19916;-74
2022/05/19 04:51:07;;;;;;;;;;;;;;;16.28;68.80;101356.72;5092791;28;19927;-74
2022/05/19 04:53:32;;;;;;;;;;;;;;;16.29;68.59;101360.16;5094189;28;19993;-76
2022/05/19 04:55:58;;;;;;;;;;;;;;;16.29;68.44;101358.41;5089427;28;20296;-74
2022/05/19 04:58:23;;;;;;;;;;;;;;;16.30;68.47;101361.88;5094267;28;19935;-74
2022/05/19 05:00:49;;;;;;;;;;;;;;;16.31;69.19;101361.00;5091689;28;20498;-76
2022/05/19 05:03:15;;;;;;;;;;;;;;;16.28;69.63;101364.56;5096117;28;19930;-76
2022/05/19 05:05:40;;;;;;;;;;;;;;;16.32;69.47;101360.91;5087192;28;19963;-76
2022/05/19 05:08:06;;;;;;;;;;;;;;;16.35;68.71;101359.94;5088588;28;19920;-76
2022/05/19 05:10:31;;;;;;;;;;;;;;;16.32;69.59;101354.81;5087894;28;19920;-74
2022/05/19 05:12:57;;;;;;;;;;;;;;;16.34;68.88;101353.84;5088160;28;20307;-74
2022/05/19 05:15:22;;;;;;;;;;;;;;;16.42;67.84;101357.06;5070805;28;20296;-74
2022/05/19 05:17:49;;;;;;;;;;;;;;;16.41;68.92;101360.59;5093933;28;19924;-76
2022/05/19 05:20:14;;;;;;;;;;;;;;;16.55;66.89;101362.72;5091852;28;19951;-76
2022/05/19 05:22:39;;;;;;;;;;;;;;;16.56;67.33;101361.81;5096490;28;20006;-77
2022/05/19 05:25:06;;;;;;;;;;;;;;;16.61;66.98;101361.66;5092657;28;19927;-77
2022/05/19 05:27:31;;;;;;;;;;;;;;;16.59;68.77;101369.56;5088749;28;19924;-76
2022/05/19 05:29:56;;;;;;;;;;;;;;;16.60;70.38;101365.19;5083552;28;19924;-76
2022/05/19 05:32:22;;;;;;;;;;;;;;;16.65;67.57;101355.38;5085554;28;19928;-77
2022/05/19 05:34:47;;;;;;;;;;;;;;;16.63;68.79;101355.44;5084905;28;20330;-77
2022/05/19 05:37:12;;;;;;;;;;;;;;;16.66;67.59;101352.69;5085404;28;19951;-75
2022/05/19 05:39:37;;;;;;;;;;;;;;;16.70;68.79;101348.25;5066078;28;19928;-75
2022/05/19 05:42:04;;;;;;;;;;;;;;;16.81;67.49;101354.78;5085528;28;19970;-75
2022/05/19 05:44:30;;;;;;;;;;;;;;;16.82;67.82;101356.47;5098070;28;20031;-75
2022/05/19 05:46:56;;;;;;;;;;;;;;;16.84;67.48;101359.94;5098029;28;20052;-75
2022/05/19 05:49:21;;;;;;;;;;;;;;;16.87;67.26;101370.31;5089670;28;19960;-75
2022/05/19 05:51:48;;;;;;;;;;;;;;;16.89;67.02;101367.63;5088468;28;19928;-75
2022/05/19 05:54:13;;;;;;;;;;;;;;;16.93;67.83;101374.47;5087074;28;20436;-75
2022/05/19 05:56:38;;;;;;;;;;;;;;;16.90;66.53;101378.06;5094841;28;19928;-75
2022/05/19 05:59:04;;;;;;;;;;;;;;;16.91;66.60;101381.53;5086224;28;20400;-75
2022/05/19 06:01:29;;;;;;;;;;;;;;;16.96;66.62;101413.72;5057508;28;20061;-75
2022/05/19 06:03:54;;;;;;;;;;;;;;;17.01;64.47;101441.50;5081269;28;19928;-76
2022/05/19 06:06:19;;;;;;;;;;;;;;;17.04;64.40;101432.66;5070270;28;20282;-76
2022/05/19 06:08:45;;;;;;;;;;;;;;;17.01;64.92;101412.63;5087103;28;19920;-77
2022/05/19 06:11:10;;;;;;;;;;;;;;;17.07;64.50;101445.66;5078730;28;19932;-77
2022/05/19 06:13:36;;;;;;;;;;;;;;;17.03;64.69;101426.53;5060046;28;19920;-77
2022/05/19 06:16:01;;;;;;;;;;;;;;;17.07;64.96;101445.66;5062198;28;20047;-76
2022/05/19 06:18:27;;;;;;;;;;;;;;;17.20;63.68;101440.81;5084075;28;19924;-76
2022/05/19 06:20:52;;;;;;;;;;;;;;;17.20;63.64;101425.06;5089780;28;19924;-76
2022/05/19 06:23:18;;;;;;;;;;;;;;;17.25;63.67;101449.38;5096543;28;20388;-76
2022/05/19 06:25:44;;;;;;;;;;;;;;;17.21;63.85;101432.88;5098350;28;19935;-76
2022/05/19 06:28:09;;;;;;;;;;;;;;;17.16;64.14;101408.56;5093294;28;20387;-76
2022/05/19 06:30:34;;;;;;;;;;;;;;;17.14;64.73;101404.28;5100200;28;19939;-76
2022/05/19 06:33:00;;;;;;;;;;;;;;;17.11;64.80;101405.28;5065467;28;19973;-77
2022/05/19 06:35:27;;;;;;;;;;;;;;;16.99;62.15;101406.59;5094974;28;19923;-77
2022/05/19 06:37:52;;;;;;;;;;;;;;;17.12;65.18;101416.59;5095298;28;19923;-74
2022/05/19 06:40:18;;;;;;;;;;;;;;;17.22;65.33;101433.75;5070172;28;20688;-74
2022/05/19 06:42:44;;;;;;;;;;;;;;;17.23;64.26;101420.56;5069892;28;19951;-74
2022/05/19 06:45:11;;;;;;;;;;;;;;;17.16;64.86;101418.22;5070583;28;19928;-76
2022/05/19 06:47:36;;;;;;;;;;;;;;;17.15;65.09;101416.50;5104110;28;20388;-77
2022/05/19 06:50:04;;;;;;;;;;;;;;;17.16;65.25;101420.84;5089970;28;19916;-77
2022/05/19 06:52:31;;;;;;;;;;;;;;;17.16;65.08;101420.84;5101185;28;19923;-77
2022/05/19 06:54:57;;;;;;;;;;;;;;;17.08;65.99;101419.34;5088739;28;19919;-77
2022/05/19 06:57:24;;;;;;;;;;;;;;;17.10;65.44;101429.81;5081579;28;19916;-76
2022/05/19 06:59:50;;;;;;;;;;;;;;;17.15;65.37;101430.47;5092243;28;19912;-76
2022/05/19 07:02:16;;;;;;;;;;;;;;;17.21;65.32;101422.38;5095016;28;19972;-75
2022/05/19 07:04:41;;;;;;;;;;;;;;;17.03;61.48;101389.78;5089525;28;19924;-75
2022/05/19 07:07:07;;;;;;;;;;;;;;;17.14;64.49;101391.16;5094951;28;19928;-75
2022/05/19 07:09:34;;;;;;;;;;;;;;;17.13;64.00;101410.44;5088966;28;20377;-75
2022/05/19 07:12:00;;;;;;;;;;;;;;;17.05;61.89;101409.00;5108556;28;19916;-75
2022/05/19 07:14:26;;;;;;;;;;;;;;;17.09;60.98;101399.22;5094777;28;19927;-75
2022/05/19 07:16:51;;;;;;;;;;;;;;;16.94;60.78;101386.66;5104608;28;19923;-75
2022/05/19 07:22:01;;;;;;;;;;;;;;;17.08;61.22;101385.22;5089467;28;19934;-76
2022/05/19 07:24:26;;;;;;;;;;;;;;;17.04;59.89;101367.91;5096513;28;20352;-76
2022/05/19 07:26:54;;;;;;;;;;;;;;;16.96;59.45;101363.84;5094483;28;20339;-76
2022/05/19 07:29:20;;;;;;;;;;;;;;;16.96;59.71;101364.72;5101088;28;19977;-76
2022/05/19 07:31:49;;;;;;;;;;;;;;;17.30;63.74;101373.91;5094550;28;19927;-77
2022/05/19 07:34:16;;;;;;;;;;;;;;;17.22;63.59;101387.34;5099453;28;19924;-77
2022/05/19 07:36:42;;;;;;;;;;;;;;;17.13;61.49;101384.19;5082836;28;19950;-77
2022/05/19 07:39:08;;;;;;;;;;;;;;;17.20;60.23;101378.69;5108055;28;19955;-77
2022/05/19 07:41:33;;;;;;;;;;;;;;;17.11;60.15;101372.91;5086889;28;19934;-76
2022/05/19 07:43:59;;;;;;;;;;;;;;;17.10;60.20;101382.56;5094981;28;19931;-76
2022/05/19 07:46:25;;;;;;;;;;;;;;;17.05;59.34;101369.63;5100120;28;20406;-76
2022/05/19 07:48:53;;;;;;;;;;;;;;;17.04;59.05;101372.28;5092948;28;19920;-75
2022/05/19 07:51:18;;;;;;;;;;;;;;;17.17;61.34;101367.44;5110111;28;19916;-75
2022/05/19 07:53:43;;;;;;;;;;;;;;;17.08;59.65;101368.63;5098055;28;19931;-75
2022/05/19 07:56:09;;;;;;;;;;;;;;;17.14;60.48;101370.16;5091146;28;20340;-74
2022/05/19 07:58:34;;;;;;;;;;;;;;;17.11;58.55;101363.28;5094555;28;20002;-75
2022/05/19 08:01:00;;;;;;;;;;;;;;;17.11;58.98;101371.16;5087318;28;19919;-75
2022/05/19 08:03:26;;;;;;;;;;;;;;;17.05;59.11;101372.25;5093546;28;19928;-75
2022/05/19 08:05:52;;;;;;;;;;;;;;;17.07;58.32;101366.91;5094872;28;19942;-75
2022/05/19 08:08:17;;;;;;;;;;;;;;;17.11;58.57;101359.78;5093173;28;19979;-75
2022/05/19 08:10:42;;;;;;;;;;;;;;;17.18;61.18;101359.47;5090874;28;20359;-75
2022/05/19 08:15:52;;;;;;;;;;;;;;;17.23;59.27;101360.19;5089717;28;20457;-75
2022/05/19 08:18:18;;;;;;;;;;;;;;;17.13;58.49;101366.69;5096119;28;19924;-76
2022/05/19 08:20:46;;;;;;;;;;;;;;;17.17;59.52;101359.56;5092133;28;20373;-76
2022/05/19 08:23:14;;;;;;;;;;;;;;;17.03;58.80;101355.69;5105231;28;19971;-76
2022/05/19 08:25:39;;;;;;;;;;;;;;;17.08;58.49;101354.66;5092688;28;19937;-76
2022/05/19 08:28:05;;;;;;;;;;;;;;;17.09;58.82;101354.59;5093138;28;20312;-76
2022/05/19 08:30:31;;;;;;;;;;;;;;;17.08;58.36;101340.59;5093149;28;19923;-75
2022/05/19 08:32:56;;;;;;;;;;;;;;;17.13;58.56;101339.56;5096802;28;19974;-74
2022/05/19 08:35:21;;;;;;;;;;;;;;;17.12;58.63;101345.72;5094356;28;19916;-75
2022/05/19 08:37:47;;;;;;;;;;;;;;;17.13;58.41;101344.81;5059094;28;19931;-75
2022/05/19 08:40:13;;;;;;;;;;;;;;;17.13;58.47;101350.06;5092692;28;19924;-75
2022/05/19 08:42:40;;;;;;;;;;;;;;;17.27;61.60;101353.88;5088431;28;19925;-75
2022/05/19 08:45:11;;;;;;;;;;;;;;;17.48;61.34;101350.41;5075871;28;20021;-75
2022/05/19 08:47:37;;;;;;;;;;;;;;;17.25;58.19;101344.34;5089624;28;19924;-75
2022/05/19 08:50:11;;;;;;;;;;;;;;;17.18;58.14;101345.50;5093421;28;20421;-75
2022/05/19 08:52:45;;;;;;;;;;;;;;;17.13;58.41;101345.69;5088059;28;19958;-75
2022/05/19 08:55:14;;;;;;;;;;;;;;;17.34;60.60;101347.47;5091980;28;19930;-75
2022/05/19 08:57:41;;;;;;;;;;;;;;;17.10;58.17;101345.81;5084439;28;19927;-75
2022/05/19 09:00:18;;;;;;;;;;;;;;;17.30;58.27;101348.50;5099126;28;19916;-75
2022/05/19 09:02:52;;;;;;;;;;;;;;;17.13;58.17;101344.81;5085388;28;19928;-75
2022/05/19 09:05:29;;;;;;;;;;;;;;;17.11;58.71;101344.91;5079807;28;19939;-75
2022/05/19 09:08:14;;;;;;;;;;;;;;;17.11;58.21;101344.91;5087853;28;20485;-75
2022/05/19 09:10:59;;;;;;;;;;;;;;;17.17;58.30;101338.53;5092273;28;20015;-76
2022/05/19 09:13:31;;;;;;;;;;;;;;;17.14;58.31;101336.03;5086191;28;19951;-77
2022/05/19 09:15:58;;;;;;;;;;;;;;;17.31;59.27;101333.59;5084199;28;19920;-76
2022/05/19 09:18:34;;;;;;;;;;;;;;;17.17;58.24;101328.91;5096606;28;19924;-76
2022/05/19 09:21:02;;;;;;;;;;;;;;;17.17;58.50;101330.66;5081799;28;20317;-76
2022/05/19 09:23:27;;;;;;;;;;;;;;;17.35;59.15;101332.56;5095838;28;19932;-74
2022/05/19 09:25:57;;;;;;;;;;;;;;;17.23;58.11;101320.78;5101232;28;19969;-74
2022/05/19 09:28:23;;;;;;;;;;;;;;;17.12;58.54;101316.84;5093995;28;20299;-74
2022/05/19 09:30:54;;;;;;;;;;;;;;;17.38;58.77;101316.69;5100457;28;19924;-77
2022/05/19 09:33:28;;;;;;;;;;;;;;;17.21;58.36;101321.75;5066311;28;19928;-77
2022/05/19 09:35:55;;;;;;;;;;;;;;;17.27;57.42;101321.50;5095989;28;19916;-77
2022/05/19 09:38:25;;;;;;;;;;;;;;;17.26;57.75;101317.19;5100363;28;19967;-76
2022/05/19 09:40:53;;;;;;;;;;;;;;;17.54;62.17;101317.75;5100637;28;19927;-74
2022/05/19 09:43:21;;;;;;;;;;;;;;;17.27;57.67;101305.75;5097538;28;20012;-76
2022/05/19 09:45:48;;;;;;;;;;;;;;;17.42;61.25;101318.25;5084417;28;20308;-76
2022/05/19 09:48:14;;;;;;;;;;;;;;;17.29;57.90;101311.81;5094184;28;19916;-77
2022/05/19 09:50:47;;;;;;;;;;;;;;;17.23;57.45;101301.56;5085703;28;19927;-77
2022/05/19 09:53:35;;;;;;;;;;;;;;;17.25;57.47;101303.19;5093260;28;19920;-76
2022/05/19 09:56:03;;;;;;;;;;;;;;;17.15;57.71;101303.59;5091835;28;19926;-78
2022/05/19 09:58:33;;;;;;;;;;;;;;;17.11;57.85;101294.16;5071879;28;19927;-77
2022/05/19 10:00:59;;;;;;;;;;;;;;;17.36;57.29;101289.63;5098013;28;19920;-77
2022/05/19 10:03:26;;;;;;;;;;;;;;;17.20;57.64;101286.78;5091000;28;20385;-77
2022/05/19 10:05:56;;;;;;;;;;;;;;;17.20;57.72;101284.16;5092875;28;19919;-77
2022/05/19 10:08:34;;;;;;;;;;;;;;;17.46;57.30;101289.19;5099786;28;20416;-77
2022/05/19 10:11:03;;;;;;;;;;;;;;;17.22;57.85;101286.69;5097777;28;19920;-77
2022/05/19 10:13:32;;;;;;;;;;;;;;;17.26;57.78;101289.16;5096025;28;20387;-77
2022/05/19 10:16:11;;;;;;;;;;;;;;;17.55;56.76;101278.31;5092497;28;19924;-76
2022/05/19 10:18:38;;;;;;;;;;;;;;;17.63;58.28;101274.53;5097455;28;20296;-75
2022/05/19 10:21:03;;;;;;;;;;;;;;;17.65;57.12;101276.16;5091798;28;19912;-75
2022/05/19 10:23:47;;;;;;;;;;;;;;;17.39;57.40;101279.84;5096744;28;19930;-75
2022/05/19 10:26:15;;;;;;;;;;;;;;;17.36;57.20;101279.97;5098390;28;19975;-75
2022/05/19 10:31:25;;;;;;;;;;;;;;;17.54;57.58;101262.59;5094648;28;20015;-77
2022/05/19 10:33:57;;;;;;;;;;;;;;;17.52;57.33;101267.06;5090013;28;20010;-77
2022/05/19 10:36:33;;;;;;;;;;;;;;;17.63;58.99;101259.63;5090810;28;20018;-77
2022/05/19 10:39:10;;;;;;;;;;;;;;;17.42;57.54;101249.97;5082313;28;19927;-77
2022/05/19 10:41:54;;;;;;;;;;;;;;;17.41;57.77;101251.75;5092072;28;20004;-77
2022/05/19 10:44:38;;;;;;;;;;;;;;;17.37;57.07;101244.94;5087540;28;20270;-77
2022/05/19 10:47:13;;;;;;;;;;;;;;;17.57;58.40;101236.19;5088951;28;19916;-77
2022/05/19 10:49:41;;;;;;;;;;;;;;;17.43;57.24;101230.69;5089745;28;19916;-77
2022/05/19 10:52:09;;;;;;;;;;;;;;;17.48;57.42;101231.34;5084955;28;20282;-77
2022/05/19 10:54:50;;;;;;;;;;;;;;;17.43;57.66;101220.19;5102061;28;19923;-77
2022/05/19 10:57:34;;;;;;;;;;;;;;;17.58;57.84;101217.75;5101131;28;19964;-75
2022/05/19 11:00:05;;;;;;;;;;;;;;;17.78;60.03;101222.19;5092548;28;20463;-77
2022/05/19 11:02:49;;;;;;;;;;;;;;;17.76;60.87;101212.66;5090544;28;19948;-77
2022/05/19 11:05:35;;;;;;;;;;;;;;;17.33;57.46;101203.94;5089106;28;20038;-77
2022/05/19 11:08:27;;;;;;;;;;;;;;;17.42;57.55;101206.19;5058348;28;20077;-77
2022/05/19 11:10:58;;;;;;;;;;;;;;;17.33;57.39;101200.47;5094111;28;19920;-77
2022/05/19 11:13:42;;;;;;;;;;;;;;;17.32;57.54;101199.59;5104087;28;20023;-74
2022/05/19 11:16:36;;;;;;;;;;;;;;;17.47;57.01;101206.84;5094731;28;19923;-76
2022/05/19 11:19:20;;;;;;;;;;;;;;;17.42;57.10;101206.19;5054711;28;19977;-75
2022/05/19 11:21:57;;;;;;;;;;;;;;;17.49;57.19;101215.53;5087834;28;19920;-75
2022/05/19 11:24:28;;;;;;;;;;;;;;;17.40;57.56;101217.69;5093202;28;19967;-75
2022/05/19 11:26:59;;;;;;;;;;;;;;;17.44;57.60;101222.72;5081692;28;20491;-75
2022/05/19 11:29:35;;;;;;;;;;;;;;;17.48;57.08;101205.06;5095934;28;19917;-75
2022/05/19 11:32:13;;;;;;;;;;;;;;;17.75;56.72;101180.25;5096858;28;19946;-75
2022/05/19 11:34:53;;;;;;;;;;;;;;;17.50;57.10;101176.97;5099377;28;20008;-75
2022/05/19 11:37:19;;;;;;;;;;;;;;;17.55;56.93;101182.88;5100094;28;19923;-75
2022/05/19 11:39:59;;;;;;;;;;;;;;;17.61;56.76;101201.03;5093055;28;20047;-75
2022/05/19 11:42:39;;;;;;;;;;;;;;;17.59;57.25;101200.22;5083297;28;19920;-75
2022/05/19 11:45:07;;;;;;;;;;;;;;;17.50;57.13;101195.38;5089721;28;19924;-75
2022/05/19 11:56:16;;;;;;;;;;;;;;;17.75;57.14;101179.41;5043794;28;19982;-77
2022/05/19 11:58:42;;;;;;;;;;;;;;;17.55;56.88;101172.38;5092603;28;20015;-77
2022/05/19 12:01:11;;;;;;;;;;;;;;;17.49;57.13;101173.50;5093013;28;20054;-75
2022/05/19 12:03:43;;;;;;;;;;;;;;;17.98;64.62;101177.47;5075178;28;20408;-74
2022/05/19 12:06:09;;;;;;;;;;;;;;;17.82;57.25;101167.72;5094676;28;19924;-75
2022/05/19 12:08:37;;;;;;;;;;;;;;;17.51;57.16;101163.75;5090542;28;19923;-75
2022/05/19 12:11:20;;;;;;;;;;;;;;;17.47;57.05;101161.34;5100806;28;19923;-74
2022/05/19 12:13:47;;;;;;;;;;;;;;;17.46;57.35;101157.88;5098361;28;19962;-74
2022/05/19 12:16:15;;;;;;;;;;;;;;;17.84;56.93;101144.84;5099028;28;20014;-75
2022/05/19 12:19:01;;;;;;;;;;;;;;;17.50;56.91;101135.78;5092569;28;20293;-74
2022/05/19 12:21:31;;;;;;;;;;;;;;;17.46;57.20;101139.47;5089770;28;19943;-74
2022/05/19 12:23:57;;;;;;;;;;;;;;;17.54;56.75;101137.38;5090612;28;19931;-75
2022/05/19 12:26:25;;;;;;;;;;;;;;;17.51;58.24;101137.50;5099264;28;20442;-74
2022/05/19 12:29:10;;;;;;;;;;;;;;;17.63;56.71;101125.63;5093916;28;19927;-75
2022/05/19 12:34:27;;;;;;;;;;;;;;;17.55;57.09;101119.84;5095398;28;19942;-75
2022/05/19 12:37:12;;;;;;;;;;;;;;;17.46;56.87;101125.50;5096798;28;19920;-75
2022/05/19 12:39:51;;;;;;;;;;;;;;;17.46;57.08;101128.97;5041594;28;20428;-75
2022/05/19 12:42:16;;;;;;;;;;;;;;;17.42;57.25;101127.41;5067990;28;19969;-74
2022/05/19 12:44:50;;;;;;;;;;;;;;;17.49;57.10;101141.97;5089449;28;19982;-75
2022/05/19 12:47:15;;;;;;;;;;;;;;;17.58;57.71;101135.47;5093543;28;19924;-75
2022/05/19 12:50:01;;;;;;;;;;;;;;;17.49;57.06;101118.34;5095951;28;20625;-74
2022/05/19 12:52:46;;;;;;;;;;;;;;;17.57;57.84;101120.63;5091408;28;20007;-75
2022/05/19 12:55:27;;;;;;;;;;;;;;;17.66;57.01;101104.47;5088670;28;20502;-75
2022/05/19 12:57:57;;;;;;;;;;;;;;;17.58;56.89;101094.28;5088433;28;19956;-75
2022/05/19 13:00:24;;;;;;;;;;;;;;;17.56;56.81;101084.78;5093202;28;19924;-75
2022/05/19 13:02:52;;;;;;;;;;;;;;;17.76;60.21;101073.38;5102337;28;20289;-75